Time;durP1;ratioP1;P1;durP2;ratioP2;P2;SDS_P1;SDS_P2;PMS_P1;PMS_P2;Temp;Humidity;BMP_temperature;BMP_pressure;BME280_temperature;BME280_humidity;BME280_pressure;Samples;Min_cycle;Max_cycle;Signal;HPM_P1;HPM_P2
2023/03/29 00:00:39;;;;;;;3.87;3.57;;;7.90;99.90;;;;;;5089720;28;20230;-56
2023/03/29 00:03:07;;;;;;;5.70;3.40;;;7.90;99.90;;;;;;5086274;28;20246;-56
2023/03/29 00:05:40;;;;;;;5.33;3.50;;;7.90;99.90;;;;;;5091144;28;20302;-56
2023/03/29 00:08:13;;;;;;;3.40;3.10;;;7.90;99.90;;;;;;5091370;28;20550;-56
2023/03/29 00:10:43;;;;;;;4.23;3.67;;;7.90;99.90;;;;;;5088327;28;20202;-54
2023/03/29 00:13:11;;;;;;;6.57;3.10;;;7.90;99.90;;;;;;5088965;28;20215;-56
2023/03/29 00:15:41;;;;;;;4.20;3.50;;;7.90;99.90;;;;;;5087039;28;20211;-55
2023/03/29 00:18:09;;;;;;;3.90;3.40;;;8.00;99.90;;;;;;5077689;28;20219;-56
2023/03/29 00:20:37;;;;;;;7.00;3.87;;;8.00;99.90;;;;;;5087580;28;20311;-54
2023/03/29 00:23:06;;;;;;;4.20;3.80;;;7.90;99.90;;;;;;5090797;27;20223;-53
2023/03/29 00:25:34;;;;;;;4.87;3.50;;;8.00;99.90;;;;;;5089641;28;20187;-56
2023/03/29 00:28:06;;;;;;;3.77;3.40;;;7.90;99.90;;;;;;5071262;28;20192;-56
2023/03/29 00:30:34;;;;;;;3.77;3.33;;;7.90;99.90;;;;;;5070201;28;20224;-56
2023/03/29 00:33:02;;;;;;;7.97;3.80;;;7.90;99.90;;;;;;5083712;28;20253;-55
2023/03/29 00:35:31;;;;;;;3.93;3.57;;;7.90;99.90;;;;;;5079661;28;20236;-53
2023/03/29 00:37:59;;;;;;;6.07;3.53;;;7.90;99.90;;;;;;5087719;28;20223;-55
2023/03/29 00:40:27;;;;;;;7.90;3.43;;;7.90;99.90;;;;;;5084695;28;20219;-55
2023/03/29 00:42:56;;;;;;;4.83;3.70;;;8.00;99.90;;;;;;5069962;28;20253;-54
2023/03/29 00:45:29;;;;;;;5.03;3.67;;;8.00;99.90;;;;;;5065769;28;20266;-56
2023/03/29 00:48:01;;;;;;;5.73;3.90;;;8.00;99.90;;;;;;5069583;28;20216;-56
2023/03/29 00:50:33;;;;;;;5.87;3.77;;;8.00;99.90;;;;;;5063000;28;20295;-56
2023/03/29 00:53:06;;;;;;;6.93;3.33;;;7.90;99.90;;;;;;5067279;28;20216;-56
2023/03/29 00:55:38;;;;;;;5.53;3.47;;;8.00;99.90;;;;;;5090754;28;20287;-56
2023/03/29 00:58:11;;;;;;;4.27;3.70;;;8.00;99.90;;;;;;5066085;28;20258;-55
2023/03/29 01:00:47;;;;;;;6.57;3.80;;;8.00;99.90;;;;;;5066964;28;20825;-54
2023/03/29 01:03:23;;;;;;;4.27;3.50;;;8.00;99.90;;;;;;5065705;28;20236;-54
2023/03/29 01:05:57;;;;;;;3.50;3.30;;;7.90;99.90;;;;;;5067326;28;20220;-56
2023/03/29 01:08:29;;;;;;;5.33;3.67;;;7.90;99.90;;;;;;5064908;28;20646;-56
2023/03/29 01:11:02;;;;;;;5.77;3.70;;;8.00;99.90;;;;;;5066425;28;20225;-55
2023/03/29 01:13:38;;;;;;;5.17;4.03;;;7.90;99.90;;;;;;5060715;28;20203;-56
2023/03/29 01:16:11;;;;;;;3.77;3.43;;;7.90;99.90;;;;;;5067210;28;20779;-56
2023/03/29 01:18:41;;;;;;;5.40;4.07;;;7.90;99.90;;;;;;5069554;28;20294;-55
2023/03/29 01:21:22;;;;;;;5.93;3.73;;;7.90;99.90;;;;;;5066817;28;20871;-56
2023/03/29 01:24:10;;;;;;;3.90;3.60;;;8.00;99.90;;;;;;5067971;28;20254;-55
2023/03/29 01:26:54;;;;;;;5.40;3.60;;;8.00;99.90;;;;;;5068916;28;20261;-56
2023/03/29 01:29:27;;;;;;;6.50;3.70;;;7.90;99.90;;;;;;5061332;28;20277;-56
2023/03/29 01:32:01;;;;;;;4.33;3.93;;;7.90;99.90;;;;;;5064199;28;20733;-56
2023/03/29 01:34:36;;;;;;;4.20;3.90;;;8.00;99.90;;;;;;5062821;28;20292;-56
2023/03/29 01:37:11;;;;;;;6.53;4.00;;;8.00;99.90;;;;;;5070616;28;20620;-56
2023/03/29 01:39:39;;;;;;;6.33;4.43;;;8.00;99.90;;;;;;5069584;28;20250;-56
2023/03/29 01:42:16;;;;;;;4.60;4.20;;;8.00;99.90;;;;;;5068616;28;20262;-56
2023/03/29 01:44:55;;;;;;;4.70;4.20;;;8.00;99.90;;;;;;5056963;28;20731;-55
2023/03/29 01:47:30;;;;;;;7.07;4.73;;;8.00;99.90;;;;;;5063605;28;20211;-56
2023/03/29 01:50:10;;;;;;;4.47;4.03;;;8.00;99.90;;;;;;5066741;28;20616;-55
2023/03/29 01:52:42;;;;;;;8.33;4.27;;;8.10;99.90;;;;;;5071960;28;20670;-56
2023/03/29 01:55:16;;;;;;;7.43;4.47;;;8.10;99.90;;;;;;5064496;28;20250;-56
2023/03/29 01:57:46;;;;;;;6.83;4.30;;;8.10;99.90;;;;;;5062232;28;20212;-55
2023/03/29 02:00:20;;;;;;;6.37;4.27;;;8.10;99.90;;;;;;5065108;28;20273;-56
2023/03/29 02:02:51;;;;;;;5.67;4.20;;;8.00;99.90;;;;;;5072053;28;20241;-55
2023/03/29 02:05:23;;;;;;;6.57;4.50;;;8.00;99.90;;;;;;5067950;28;20224;-56
2023/03/29 02:07:52;;;;;;;5.93;4.00;;;8.00;99.90;;;;;;5066313;28;20724;-57
2023/03/29 02:10:23;;;;;;;6.20;4.33;;;8.10;99.90;;;;;;5064390;28;20199;-57
2023/03/29 02:12:51;;;;;;;4.30;3.90;;;8.00;99.90;;;;;;5065297;28;20208;-56
2023/03/29 02:15:22;;;;;;;7.00;4.67;;;8.00;99.90;;;;;;5066542;28;20242;-56
2023/03/29 02:17:51;;;;;;;4.93;3.80;;;8.10;99.90;;;;;;5067542;28;20311;-55
2023/03/29 02:20:23;;;;;;;4.40;3.97;;;8.10;99.90;;;;;;5062701;28;20590;-56
2023/03/29 02:22:58;;;;;;;6.07;3.83;;;8.10;99.90;;;;;;5064852;28;20311;-56
2023/03/29 02:25:26;;;;;;;6.63;3.70;;;8.10;99.90;;;;;;5067946;28;20195;-56
2023/03/29 02:27:55;;;;;;;7.27;4.07;;;8.00;99.90;;;;;;5086217;28;20601;-57
2023/03/29 02:30:29;;;;;;;6.03;4.30;;;8.00;99.90;;;;;;5079919;28;20215;-56
2023/03/29 02:33:04;;;;;;;7.60;4.17;;;8.00;99.90;;;;;;5081091;28;20219;-55
2023/03/29 02:35:35;;;;;;;4.47;4.07;;;8.00;99.90;;;;;;5080414;28;20228;-56
2023/03/29 02:38:07;;;;;;;5.27;4.27;;;8.00;99.90;;;;;;5082148;28;20231;-56
2023/03/29 02:40:39;;;;;;;4.60;3.90;;;8.10;99.90;;;;;;5078513;28;20215;-56
2023/03/29 02:43:09;;;;;;;4.60;4.17;;;8.10;99.90;;;;;;5083836;28;21127;-56
2023/03/29 02:45:40;;;;;;;4.40;4.00;;;8.00;99.90;;;;;;5068382;28;20223;-56
2023/03/29 02:48:13;;;;;;;5.57;4.30;;;8.00;99.90;;;;;;5075861;28;20608;-57
2023/03/29 02:50:45;;;;;;;6.70;4.30;;;8.00;99.90;;;;;;5085447;28;20215;-54
2023/03/29 02:53:16;;;;;;;7.07;4.13;;;8.00;99.90;;;;;;5091381;28;20239;-56
2023/03/29 02:55:46;;;;;;;6.57;4.27;;;8.00;99.90;;;;;;5084820;28;20191;-56
2023/03/29 02:58:15;;;;;;;7.83;4.20;;;8.00;99.90;;;;;;5071319;28;20273;-57
2023/03/29 03:00:46;;;;;;;4.33;3.93;;;8.00;99.90;;;;;;5069229;28;20224;-55
2023/03/29 03:03:15;;;;;;;8.27;4.23;;;8.00;99.90;;;;;;5070593;28;20215;-57
2023/03/29 03:05:43;;;;;;;7.53;4.27;;;8.00;99.90;;;;;;5063411;28;20257;-56
2023/03/29 03:08:12;;;;;;;7.40;4.33;;;7.90;99.90;;;;;;5071043;28;20228;-56
2023/03/29 03:10:41;;;;;;;6.83;4.37;;;7.90;99.90;;;;;;5070706;28;20200;-56
2023/03/29 03:13:10;;;;;;;6.43;4.47;;;7.80;99.90;;;;;;5063006;28;20284;-56
2023/03/29 03:15:41;;;;;;;5.23;4.27;;;7.80;99.90;;;;;;5071178;28;20223;-55
2023/03/29 03:18:11;;;;;;;9.50;4.53;;;7.80;99.90;;;;;;5062621;28;20278;-56
2023/03/29 03:20:40;;;;;;;5.40;4.53;;;7.80;99.90;;;;;;5071300;28;20216;-57
2023/03/29 03:23:09;;;;;;;4.57;4.00;;;7.80;99.90;;;;;;5068344;28;20245;-55
2023/03/29 03:25:38;;;;;;;5.07;4.37;;;7.80;99.90;;;;;;5070980;28;20593;-54
2023/03/29 03:28:09;;;;;;;6.30;4.87;;;7.80;99.90;;;;;;5071604;28;20180;-56
2023/03/29 03:30:37;;;;;;;5.10;4.23;;;7.80;99.90;;;;;;5070704;28;20232;-56
2023/03/29 03:33:05;;;;;;;8.27;4.63;;;7.80;99.90;;;;;;5067369;28;20231;-57
2023/03/29 03:35:35;;;;;;;9.00;5.10;;;7.80;99.90;;;;;;5065491;28;20663;-57
2023/03/29 03:38:03;;;;;;;7.07;4.70;;;7.80;99.90;;;;;;5073290;28;20228;-56
2023/03/29 03:40:32;;;;;;;5.73;4.50;;;7.90;99.90;;;;;;5068157;28;20724;-56
2023/03/29 03:43:00;;;;;;;6.60;4.50;;;7.90;99.90;;;;;;5069114;28;20245;-54
2023/03/29 03:45:28;;;;;;;4.73;4.20;;;7.90;99.90;;;;;;5067753;28;20266;-55
2023/03/29 03:48:00;;;;;;;6.37;4.60;;;7.90;99.90;;;;;;5065228;28;20247;-56
2023/03/29 03:50:28;;;;;;;7.80;4.40;;;7.80;99.90;;;;;;5070136;28;20224;-56
2023/03/29 03:52:57;;;;;;;7.83;4.50;;;7.80;99.90;;;;;;5073186;28;20215;-56
2023/03/29 03:55:28;;;;;;;6.00;4.57;;;7.80;99.90;;;;;;5073419;28;20654;-56
2023/03/29 03:57:56;;;;;;;6.63;4.40;;;7.70;99.90;;;;;;5091392;28;20228;-55
2023/03/29 04:00:25;;;;;;;6.70;4.70;;;7.60;99.90;;;;;;5092036;28;20578;-57
2023/03/29 04:02:55;;;;;;;7.27;4.97;;;7.70;99.90;;;;;;5091816;28;20226;-56
2023/03/29 04:05:23;;;;;;;9.40;5.67;;;7.60;99.90;;;;;;5093412;28;20302;-56
2023/03/29 04:07:51;;;;;;;5.07;4.60;;;7.60;99.90;;;;;;5093678;28;20302;-55
2023/03/29 04:10:21;;;;;;;6.20;4.67;;;7.50;99.90;;;;;;5088804;28;20244;-55
2023/03/29 04:12:51;;;;;;;5.53;4.60;;;7.50;99.90;;;;;;5067698;28;20759;-57
2023/03/29 04:15:19;;;;;;;5.13;4.63;;;7.50;99.90;;;;;;5070222;28;20246;-55
2023/03/29 04:17:47;;;;;;;6.97;4.33;;;7.50;99.90;;;;;;5067193;28;20265;-58
2023/03/29 04:20:16;;;;;;;6.93;4.80;;;7.60;99.90;;;;;;5067309;28;20243;-56
2023/03/29 04:22:44;;;;;;;8.33;4.70;;;7.60;99.90;;;;;;5063955;28;20200;-57
2023/03/29 04:25:12;;;;;;;6.33;4.97;;;7.70;99.90;;;;;;5078232;28;20198;-56
2023/03/29 04:27:43;;;;;;;7.23;4.50;;;7.60;99.90;;;;;;5068699;28;20208;-57
2023/03/29 04:30:12;;;;;;;4.97;4.40;;;7.60;99.90;;;;;;5074596;28;20268;-56
2023/03/29 04:32:40;;;;;;;7.27;4.60;;;7.70;99.90;;;;;;5067980;28;20247;-56
2023/03/29 04:35:09;;;;;;;6.03;4.50;;;7.60;99.90;;;;;;5072943;28;20227;-56
2023/03/29 04:37:40;;;;;;;6.13;4.80;;;7.70;99.90;;;;;;5071069;28;20188;-56
2023/03/29 04:40:13;;;;;;;8.33;5.17;;;7.80;99.90;;;;;;5072834;28;20216;-57
2023/03/29 04:42:44;;;;;;;8.47;5.23;;;7.80;99.90;;;;;;5064774;28;20574;-57
2023/03/29 04:45:14;;;;;;;7.37;4.60;;;7.80;99.90;;;;;;5059979;28;20249;-56
2023/03/29 04:47:42;;;;;;;7.23;4.90;;;7.80;99.90;;;;;;5059273;28;20224;-57
2023/03/29 04:50:11;;;;;;;6.53;4.70;;;7.80;99.90;;;;;;5063678;28;20765;-57
2023/03/29 04:52:39;;;;;;;7.73;4.67;;;7.90;99.90;;;;;;5064175;28;20601;-57
2023/03/29 04:55:09;;;;;;;6.30;5.00;;;7.90;99.90;;;;;;5063789;28;20200;-54
2023/03/29 04:57:37;;;;;;;5.10;4.13;;;7.90;99.90;;;;;;5067292;28;20277;-56
2023/03/29 05:00:13;;;;;;;8.03;4.70;;;7.90;99.90;;;;;;5060553;28;20232;-56
2023/03/29 05:02:43;;;;;;;8.17;4.77;;;7.90;99.90;;;;;;5061513;28;20230;-57
2023/03/29 05:05:12;;;;;;;5.53;4.83;;;8.00;99.90;;;;;;5069484;28;20215;-54
2023/03/29 05:07:40;;;;;;;6.87;4.83;;;8.00;99.90;;;;;;5062850;28;20856;-56
2023/03/29 05:10:09;;;;;;;7.47;4.73;;;8.00;99.90;;;;;;5058930;28;20189;-56
2023/03/29 05:12:38;;;;;;;9.23;5.13;;;8.00;99.90;;;;;;5064727;28;20323;-57
2023/03/29 05:15:10;;;;;;;6.10;4.77;;;8.10;99.90;;;;;;5067040;28;20243;-56
2023/03/29 05:17:38;;;;;;;5.63;4.70;;;8.10;99.90;;;;;;5067348;28;20312;-57
2023/03/29 05:20:10;;;;;;;6.10;4.90;;;8.10;99.90;;;;;;5064671;28;20229;-56
2023/03/29 05:22:39;;;;;;;5.17;4.67;;;8.10;99.90;;;;;;5063977;28;20756;-57
2023/03/29 05:25:10;;;;;;;5.27;4.73;;;8.10;99.90;;;;;;5064987;28;20238;-55
2023/03/29 05:27:38;;;;;;;11.43;5.10;;;8.00;99.90;;;;;;5068653;28;20614;-56
2023/03/29 05:30:10;;;;;;;7.43;5.17;;;8.10;99.90;;;;;;5069591;28;20224;-56
2023/03/29 05:32:38;;;;;;;5.60;4.90;;;8.00;99.90;;;;;;5063372;28;20224;-56
2023/03/29 05:35:07;;;;;;;6.43;5.00;;;8.00;99.90;;;;;;5068645;28;20611;-57
2023/03/29 05:37:35;;;;;;;6.73;5.17;;;8.00;99.90;;;;;;5066462;28;20781;-56
2023/03/29 05:40:08;;;;;;;6.40;5.23;;;8.00;99.90;;;;;;5069268;28;20816;-56
2023/03/29 05:42:37;;;;;;;7.33;5.20;;;8.00;99.90;;;;;;5064044;28;20311;-54
2023/03/29 05:45:09;;;;;;;12.20;5.10;;;8.10;99.90;;;;;;5055268;28;20220;-56
2023/03/29 05:47:37;;;;;;;8.50;4.93;;;8.10;99.90;;;;;;5078281;28;20214;-55
2023/03/29 05:50:08;;;;;;;7.43;5.47;;;8.10;99.90;;;;;;5085006;28;20219;-57
2023/03/29 05:52:37;;;;;;;5.87;5.10;;;8.10;99.90;;;;;;5084453;28;20246;-56
2023/03/29 05:55:06;;;;;;;6.93;5.10;;;8.10;99.90;;;;;;5079604;28;20199;-56
2023/03/29 05:57:36;;;;;;;9.43;5.37;;;8.10;99.90;;;;;;5082728;28;20215;-57
2023/03/29 06:00:13;;;;;;;5.63;4.93;;;8.10;99.90;;;;;;5078333;28;20821;-57
2023/03/29 06:02:44;;;;;;;8.00;5.23;;;8.20;99.90;;;;;;5079203;28;20287;-57
2023/03/29 06:05:12;;;;;;;9.13;5.37;;;8.30;99.90;;;;;;5080970;28;20216;-57
2023/03/29 06:07:41;;;;;;;7.57;5.77;;;8.20;99.90;;;;;;5074647;28;20199;-57
2023/03/29 06:10:10;;;;;;;8.00;5.37;;;8.30;99.90;;;;;;5082668;28;20214;-57
2023/03/29 06:12:39;;;;;;;7.00;5.63;;;8.30;99.90;;;;;;5090019;28;20630;-56
2023/03/29 06:15:09;;;;;;;10.87;5.10;;;8.40;99.90;;;;;;5090925;28;20268;-57
2023/03/29 06:17:38;;;;;;;8.47;5.53;;;8.50;99.90;;;;;;5087937;27;20307;-57
2023/03/29 06:20:10;;;;;;;7.97;5.83;;;8.50;99.90;;;;;;5082982;27;20297;-56
2023/03/29 06:22:39;;;;;;;6.93;5.50;;;8.60;99.90;;;;;;5086585;28;20192;-56
2023/03/29 06:25:11;;;;;;;6.67;5.43;;;8.70;99.90;;;;;;5094007;28;20209;-56
2023/03/29 06:27:39;;;;;;;5.13;4.73;;;8.80;99.90;;;;;;5089879;28;20229;-57
2023/03/29 06:30:08;;;;;;;7.57;5.90;;;8.80;99.90;;;;;;5093994;28;20219;-57
2023/03/29 06:32:36;;;;;;;6.07;5.30;;;8.80;99.90;;;;;;5088297;28;20285;-55
2023/03/29 06:35:07;;;;;;;7.43;5.73;;;8.90;99.90;;;;;;5091248;28;20306;-56
2023/03/29 06:37:35;;;;;;;6.77;5.23;;;9.00;99.90;;;;;;5068397;28;20238;-56
2023/03/29 06:40:05;;;;;;;9.27;5.67;;;9.00;99.90;;;;;;5066562;28;20812;-55
2023/03/29 06:42:34;;;;;;;6.93;5.23;;;9.00;99.90;;;;;;5071139;28;20220;-56
2023/03/29 06:45:03;;;;;;;7.13;5.47;;;9.00;99.90;;;;;;5071049;28;20224;-55
2023/03/29 06:47:31;;;;;;;6.87;5.33;;;9.10;99.90;;;;;;5063442;28;20280;-57
2023/03/29 06:50:00;;;;;;;6.00;5.30;;;9.10;99.90;;;;;;5071155;28;20227;-56
2023/03/29 06:52:29;;;;;;;6.87;5.43;;;9.10;99.90;;;;;;5067586;28;20220;-56
2023/03/29 06:55:00;;;;;;;8.80;5.50;;;9.20;99.90;;;;;;5062836;28;20375;-56
2023/03/29 06:57:29;;;;;;;6.20;5.13;;;9.10;99.90;;;;;;5058201;28;20224;-55
2023/03/29 06:59:57;;;;;;;7.80;5.30;;;9.10;99.90;;;;;;5070624;28;20212;-56
2023/03/29 07:02:26;;;;;;;6.30;5.57;;;9.20;99.90;;;;;;5068244;28;20212;-56
2023/03/29 07:04:54;;;;;;;14.03;5.93;;;9.20;99.90;;;;;;5069169;28;20668;-55
2023/03/29 07:07:31;;;;;;;9.23;6.40;;;9.30;99.90;;;;;;5056684;28;20212;-56
2023/03/29 07:10:01;;;;;;;6.70;5.20;;;9.30;99.90;;;;;;5067896;28;20223;-56
2023/03/29 07:12:29;;;;;;;5.47;5.00;;;9.30;99.90;;;;;;5063093;28;20217;-53
2023/03/29 07:14:57;;;;;;;7.23;5.40;;;9.30;99.90;;;;;;5068097;28;20352;-53
2023/03/29 07:17:26;;;;;;;14.43;5.87;;;9.30;99.90;;;;;;5063973;28;20641;-55
2023/03/29 07:19:55;;;;;;;8.50;5.37;;;9.30;99.90;;;;;;5068603;28;20223;-55
2023/03/29 07:22:23;;;;;;;10.63;5.60;;;9.30;99.90;;;;;;5071233;28;20261;-55
2023/03/29 07:24:52;;;;;;;7.70;5.17;;;9.40;99.90;;;;;;5089062;28;20231;-56
2023/03/29 07:27:21;;;;;;;7.57;4.90;;;9.50;99.90;;;;;;5086553;28;20284;-56
2023/03/29 07:29:50;;;;;;;6.93;4.93;;;9.60;99.90;;;;;;5090335;28;20215;-54
2023/03/29 07:32:18;;;;;;;9.37;5.20;;;9.70;99.90;;;;;;5093417;28;20794;-55
2023/03/29 07:34:48;;;;;;;7.63;5.20;;;9.80;99.90;;;;;;5085784;28;20187;-57
2023/03/29 07:37:16;;;;;;;8.33;4.80;;;9.90;99.90;;;;;;5125828;27;20201;-56
2023/03/29 07:39:44;;;;;;;10.13;4.53;;;10.00;99.90;;;;;;5088541;28;20223;-56
2023/03/29 07:42:12;;;;;;;11.93;5.57;;;10.10;99.90;;;;;;5092265;28;20239;-56
2023/03/29 07:44:42;;;;;;;7.50;5.47;;;10.10;99.90;;;;;;5081227;28;20219;-55
2023/03/29 07:47:11;;;;;;;8.70;4.93;;;10.20;99.90;;;;;;5064602;28;20772;-55
2023/03/29 07:49:40;;;;;;;6.43;5.03;;;10.30;99.90;;;;;;5071620;28;20203;-57
2023/03/29 07:52:09;;;;;;;6.67;4.60;;;10.20;99.90;;;;;;5093378;28;20192;-57
2023/03/29 07:54:37;;;;;;;6.50;4.93;;;10.30;99.90;;;;;;5091507;28;20250;-54
2023/03/29 07:57:05;;;;;;;11.23;5.17;;;10.40;99.90;;;;;;5092641;28;20591;-57
2023/03/29 07:59:34;;;;;;;7.13;4.47;;;10.50;99.90;;;;;;5080901;28;20841;-55
2023/03/29 08:02:03;;;;;;;8.43;4.87;;;10.60;99.90;;;;;;5073037;28;20227;-56
2023/03/29 08:04:32;;;;;;;7.10;5.23;;;10.70;99.90;;;;;;5071242;28;20226;-54
2023/03/29 08:07:01;;;;;;;8.97;5.50;;;10.70;99.90;;;;;;5070734;28;20196;-57
2023/03/29 08:09:30;;;;;;;7.33;4.77;;;10.80;99.90;;;;;;5074311;28;20303;-56
2023/03/29 08:11:58;;;;;;;6.87;5.40;;;10.90;99.90;;;;;;5072129;28;20270;-56
2023/03/29 08:14:27;;;;;;;5.40;4.90;;;10.90;99.90;;;;;;5069525;28;20239;-57
2023/03/29 08:16:56;;;;;;;7.40;4.93;;;10.90;99.90;;;;;;5075864;28;20248;-55
2023/03/29 08:19:28;;;;;;;5.60;5.00;;;11.00;99.90;;;;;;5073588;28;20231;-55
2023/03/29 08:21:57;;;;;;;6.70;4.73;;;10.90;99.90;;;;;;5066631;28;20220;-56
2023/03/29 08:24:25;;;;;;;6.70;5.47;;;11.00;99.90;;;;;;5086894;28;20219;-57
2023/03/29 08:26:53;;;;;;;7.63;4.93;;;11.10;99.90;;;;;;5088370;28;20227;-57
2023/03/29 08:29:22;;;;;;;6.67;4.77;;;11.10;99.90;;;;;;5090483;28;20635;-56
2023/03/29 08:31:50;;;;;;;7.00;5.13;;;11.10;99.90;;;;;;5087475;28;20226;-56
2023/03/29 08:34:19;;;;;;;6.97;4.90;;;11.10;99.90;;;;;;5093474;28;20196;-57
2023/03/29 08:36:48;;;;;;;6.93;5.10;;;11.20;99.90;;;;;;5091665;28;20216;-57
2023/03/29 08:39:17;;;;;;;7.37;5.13;;;11.30;99.90;;;;;;5093072;28;20253;-56
2023/03/29 08:41:58;;;;;;;8.30;5.03;;;11.40;99.90;;;;;;5081991;28;20244;-57
2023/03/29 08:44:44;;;;;;;6.77;4.90;;;11.50;99.90;;;;;;5071410;28;20223;-56
2023/03/29 08:47:19;;;;;;;8.37;5.47;;;11.70;99.90;;;;;;5072365;28;20224;-58
2023/03/29 08:49:53;;;;;;;10.30;5.30;;;11.80;99.90;;;;;;5069090;27;20180;-57
2023/03/29 08:52:31;;;;;;;7.70;5.13;;;12.00;99.90;;;;;;5069357;28;20531;-57
2023/03/29 08:55:02;;;;;;;10.50;5.93;;;12.20;99.90;;;;;;5061521;28;20265;-57
2023/03/29 08:57:33;;;;;;;8.30;5.00;;;12.40;99.90;;;;;;5056527;28;20244;-57
2023/03/29 09:00:05;;;;;;;5.03;4.53;;;12.30;99.90;;;;;;5066782;28;20281;-57
2023/03/29 09:02:35;;;;;;;7.37;4.93;;;12.30;99.90;;;;;;5069733;28;20219;-57
2023/03/29 09:05:14;;;;;;;6.23;5.30;;;12.30;99.90;;;;;;5072797;28;20594;-57
2023/03/29 09:07:44;;;;;;;5.97;4.87;;;12.40;99.90;;;;;;5059997;28;20184;-57
2023/03/29 09:10:14;;;;;;;7.97;5.57;;;12.50;99.90;;;;;;5061805;28;20200;-56
2023/03/29 09:12:56;;;;;;;10.47;5.13;;;12.70;99.90;;;;;;5072245;28;20212;-57
2023/03/29 09:15:29;;;;;;;9.27;6.10;;;12.80;99.90;;;;;;5071121;28;20700;-57
2023/03/29 09:18:08;;;;;;;7.27;5.17;;;12.90;99.90;;;;;;5074445;28;20258;-56
2023/03/29 09:20:44;;;;;;;8.47;5.23;;;12.90;99.90;;;;;;5063943;28;20307;-57
2023/03/29 09:23:41;;;;;;;7.83;5.17;;;13.00;99.90;;;;;;5068656;28;20264;-58
2023/03/29 09:26:18;;;;;;;6.23;4.87;;;13.10;99.90;;;;;;5066254;28;21479;-56
2023/03/29 09:28:53;;;;;;;5.57;4.80;;;13.50;99.90;;;;;;5076134;28;20187;-57
2023/03/29 09:31:26;;;;;;;8.40;5.50;;;13.80;99.90;;;;;;5071354;28;20696;-57
2023/03/29 09:33:58;;;;;;;11.30;4.93;;;14.20;99.90;;;;;;5072075;28;20241;-57
2023/03/29 09:36:36;;;;;;;4.93;4.50;;;14.60;99.90;;;;;;5071302;28;20231;-55
2023/03/29 09:39:06;;;;;;;8.40;5.07;;;14.60;99.90;;;;;;5072430;28;20219;-57
2023/03/29 09:41:40;;;;;;;10.90;5.03;;;15.00;99.90;;;;;;5066356;28;20256;-58
2023/03/29 09:44:12;;;;;;;7.97;5.10;;;15.60;99.90;;;;;;5064631;28;20248;-58
2023/03/29 09:47:01;;;;;;;6.60;4.57;;;16.30;99.90;;;;;;5067862;28;20238;-57
2023/03/29 09:49:34;;;;;;;8.63;4.93;;;16.10;99.90;;;;;;5063029;28;20529;-58
2023/03/29 09:52:06;;;;;;;5.47;4.60;;;16.00;99.90;;;;;;5092308;28;20276;-58
2023/03/29 09:54:36;;;;;;;8.57;4.90;;;16.20;99.90;;;;;;5092707;28;20258;-58
2023/03/29 09:57:04;;;;;;;7.60;4.70;;;16.30;99.90;;;;;;5089214;28;20263;-58
2023/03/29 09:59:32;;;;;;;5.80;4.73;;;16.10;99.90;;;;;;5091335;28;20223;-58
2023/03/29 10:02:07;;;;;;;7.20;4.73;;;15.80;99.90;;;;;;5089203;28;20249;-57
2023/03/29 10:04:37;;;;;;;9.77;4.93;;;15.50;99.90;;;;;;5092189;28;20197;-58
2023/03/29 10:07:07;;;;;;;5.70;4.70;;;15.40;99.90;;;;;;5083488;28;20195;-57
2023/03/29 10:09:37;;;;;;;5.23;4.73;;;15.70;99.90;;;;;;5087455;28;20257;-57
2023/03/29 10:12:06;;;;;;;7.63;4.70;;;16.00;99.90;;;;;;5092234;28;20226;-57
2023/03/29 10:14:37;;;;;;;7.67;4.40;;;16.50;99.90;;;;;;5085829;28;20243;-58
2023/03/29 10:17:20;;;;;;;7.77;4.47;;;16.90;99.90;;;;;;5082012;28;20245;-57
2023/03/29 10:19:50;;;;;;;7.67;4.97;;;16.90;99.90;;;;;;5086945;28;20239;-58
2023/03/29 10:22:24;;;;;;;4.50;4.10;;;16.70;99.90;;;;;;5085342;28;20200;-58
2023/03/29 10:24:55;;;;;;;5.50;4.50;;;16.50;99.90;;;;;;5087189;28;20219;-57
2023/03/29 10:27:26;;;;;;;4.57;4.17;;;16.00;99.90;;;;;;5094265;28;20238;-58
2023/03/29 10:29:58;;;;;;;5.57;3.77;;;15.70;99.90;;;;;;5087526;28;20226;-57
2023/03/29 10:32:33;;;;;;;5.40;3.90;;;15.50;99.90;;;;;;5090240;28;20268;-58
2023/03/29 10:35:09;;;;;;;4.37;3.83;;;15.50;99.90;;;;;;5092661;28;20627;-58
2023/03/29 10:37:40;;;;;;;6.20;3.83;;;15.40;99.90;;;;;;5086760;28;20183;-57
2023/03/29 10:40:21;;;;;;;3.73;3.30;;;15.30;99.90;;;;;;5071883;28;20247;-57
2023/03/29 10:42:52;;;;;;;4.00;3.60;;;15.00;99.90;;;;;;5073369;28;20212;-57
2023/03/29 10:45:25;;;;;;;3.87;3.53;;;14.90;99.90;;;;;;5063864;28;20223;-58
2023/03/29 10:47:56;;;;;;;6.43;3.77;;;15.00;99.90;;;;;;5069250;28;20665;-57
2023/03/29 10:50:25;;;;;;;7.20;3.80;;;15.20;99.90;;;;;;5066567;28;20706;-57
2023/03/29 10:52:54;;;;;;;3.77;3.47;;;15.50;99.90;;;;;;5068865;27;20227;-57
2023/03/29 10:55:31;;;;;;;3.93;3.50;;;15.70;99.90;;;;;;5092313;28;20213;-57
2023/03/29 10:58:11;;;;;;;3.60;3.33;;;15.90;99.90;;;;;;5061317;28;20273;-57
2023/03/29 11:00:47;;;;;;;3.50;3.20;;;16.30;99.90;;;;;;5083125;28;20280;-57
2023/03/29 11:03:41;;;;;;;3.00;2.80;;;16.30;99.90;;;;;;5071721;28;20222;-57
2023/03/29 11:06:16;;;;;;;3.10;2.80;;;15.90;99.90;;;;;;5067256;28;20221;-57
2023/03/29 11:08:52;;;;;;;4.93;3.00;;;15.80;99.90;;;;;;5071529;28;20306;-57
2023/03/29 11:11:46;;;;;;;3.03;2.83;;;15.50;99.90;;;;;;5075522;28;20262;-57
2023/03/29 11:14:27;;;;;;;3.43;2.73;;;15.60;99.90;;;;;;5064045;28;20228;-56
2023/03/29 11:17:08;;;;;;;3.83;3.07;;;15.60;99.90;;;;;;5058907;28;20273;-57
2023/03/29 11:19:51;;;;;;;3.20;2.90;;;15.60;99.90;;;;;;5068291;28;20224;-57
2023/03/29 11:22:25;;;;;;;3.87;2.93;;;15.50;99.90;;;;;;5068299;28;20582;-57
2023/03/29 11:25:16;;;;;;;2.93;2.83;;;15.50;99.90;;;;;;5072841;28;20269;-57
2023/03/29 11:27:54;;;;;;;3.07;2.87;;;15.50;99.90;;;;;;5069987;28;20629;-57
2023/03/29 11:30:28;;;;;;;2.90;2.70;;;15.70;99.90;;;;;;5069558;28;20220;-57
2023/03/29 11:33:07;;;;;;;4.13;3.10;;;15.80;99.90;;;;;;5066426;28;20221;-57
2023/03/29 11:35:52;;;;;;;3.33;2.83;;;15.80;99.90;;;;;;5071286;28;20270;-57
2023/03/29 11:38:27;;;;;;;6.77;3.10;;;15.90;99.90;;;;;;5073846;28;20224;-57
2023/03/29 11:41:01;;;;;;;3.60;3.17;;;16.00;99.90;;;;;;5072999;28;20220;-57
2023/03/29 11:43:35;;;;;;;5.23;2.80;;;16.10;99.90;;;;;;5069556;28;20235;-54
2023/03/29 11:46:11;;;;;;;3.00;2.80;;;16.30;99.90;;;;;;5072418;28;20195;-57
2023/03/29 11:48:43;;;;;;;2.93;2.73;;;16.30;99.90;;;;;;5070913;28;20238;-57
2023/03/29 11:51:18;;;;;;;3.33;3.07;;;16.20;99.90;;;;;;5066845;28;20216;-57
2023/03/29 11:53:59;;;;;;;3.67;3.47;;;16.20;99.90;;;;;;5066775;28;20269;-57
2023/03/29 11:56:31;;;;;;;5.33;3.30;;;16.20;99.90;;;;;;5072001;28;20213;-56
2023/03/29 11:59:07;;;;;;;5.53;3.40;;;16.20;99.90;;;;;;5065945;28;20230;-58
2023/03/29 12:01:42;;;;;;;4.40;3.30;;;16.40;99.90;;;;;;5067630;28;20192;-57
2023/03/29 12:04:21;;;;;;;3.40;3.10;;;16.40;99.90;;;;;;5067917;28;20315;-57
2023/03/29 12:06:56;;;;;;;4.93;3.30;;;16.50;99.90;;;;;;5068965;28;20620;-57
2023/03/29 12:09:29;;;;;;;3.30;3.10;;;16.60;99.90;;;;;;5068178;28;20545;-57
2023/03/29 12:12:06;;;;;;;5.60;3.20;;;16.50;99.90;;;;;;5068520;28;20212;-57
2023/03/29 12:14:46;;;;;;;8.33;3.37;;;16.40;99.90;;;;;;5069987;28;20221;-57
2023/03/29 12:17:19;;;;;;;2.83;2.73;;;16.50;99.90;;;;;;5070278;28;20219;-57
2023/03/29 12:19:55;;;;;;;4.83;3.03;;;16.50;99.90;;;;;;5067338;28;20700;-57
2023/03/29 12:22:24;;;;;;;3.70;2.70;;;16.70;99.90;;;;;;5063183;28;20675;-58
2023/03/29 12:24:54;;;;;;;3.00;2.80;;;16.90;99.90;;;;;;5063911;28;20222;-58
2023/03/29 12:27:28;;;;;;;5.93;2.87;;;16.90;99.90;;;;;;5072017;28;20218;-57
2023/03/29 12:30:30;;;;;;;5.00;2.50;;;16.80;99.90;;;;;;5067651;28;20208;-58
2023/03/29 12:33:15;;;;;;;2.73;2.53;;;16.90;99.90;;;;;;5062799;28;21858;-58
2023/03/29 12:35:57;;;;;;;2.70;2.47;;;16.90;99.90;;;;;;5065461;28;20560;-56
2023/03/29 12:38:28;;;;;;;2.83;2.63;;;16.80;99.90;;;;;;5060170;28;20678;-57
2023/03/29 12:41:00;;;;;;;3.10;2.90;;;16.80;99.90;;;;;;5064034;28;20235;-57
2023/03/29 12:43:32;;;;;;;5.10;3.07;;;17.00;99.90;;;;;;5067097;28;20301;-58
2023/03/29 12:46:08;;;;;;;3.80;2.93;;;17.10;99.90;;;;;;5063940;28;20635;-58
2023/03/29 12:48:40;;;;;;;3.03;2.83;;;17.20;99.90;;;;;;5086423;28;20224;-57
2023/03/29 12:51:14;;;;;;;3.83;2.60;;;17.20;99.90;;;;;;5089664;28;20237;-57
2023/03/29 12:53:44;;;;;;;2.80;2.70;;;17.10;99.90;;;;;;5082447;28;20233;-57
2023/03/29 12:56:16;;;;;;;2.93;2.73;;;17.20;99.90;;;;;;5086303;28;20214;-57
2023/03/29 12:59:06;;;;;;;2.93;2.77;;;16.90;99.90;;;;;;5079918;28;20189;-57
2023/03/29 13:01:37;;;;;;;3.30;3.10;;;16.70;99.90;;;;;;5084957;28;20199;-57
2023/03/29 13:04:18;;;;;;;5.13;3.10;;;16.40;99.90;;;;;;5077661;28;20575;-58
2023/03/29 13:07:03;;;;;;;3.50;3.20;;;16.20;99.90;;;;;;5084506;28;20257;-57
2023/03/29 13:09:36;;;;;;;3.50;3.30;;;16.20;99.90;;;;;;5088267;28;20221;-58
2023/03/29 13:12:09;;;;;;;3.30;3.10;;;16.30;99.90;;;;;;5086623;28;20247;-57
2023/03/29 13:14:41;;;;;;;3.97;3.00;;;16.50;99.90;;;;;;5085949;28;20223;-57
2023/03/29 13:17:20;;;;;;;3.10;2.90;;;16.70;99.90;;;;;;5083445;28;20247;-57